sensor_id;sensor_type;location;lat;lon;timestamp;temperature;humidity
52321;DHT22;38261;54.090;13.382;2022-08-19T00:00:27;21.80;99.90
52321;DHT22;38261;54.090;13.382;2022-08-19T00:01:51;21.80;99.90
52321;DHT22;38261;54.090;13.382;2022-08-19T00:03:14;21.70;99.90
52321;DHT22;38261;54.090;13.382;2022-08-19T00:04:36;21.70;99.90
52321;DHT22;38261;54.090;13.382;2022-08-19T00:05:59;21.70;99.90
52321;DHT22;38261;54.090;13.382;2022-08-19T00:07:21;21.70;99.90
52321;DHT22;38261;54.090;13.382;2022-08-19T00:08:43;21.70;99.90
52321;DHT22;38261;54.090;13.382;2022-08-19T00:10:07;21.60;99.90
52321;DHT22;38261;54.090;13.382;2022-08-19T00:11:31;21.70;99.90
52321;DHT22;38261;54.090;13.382;2022-08-19T00:12:53;21.60;99.90
52321;DHT22;38261;54.090;13.382;2022-08-19T00:14:17;21.50;99.90
52321;DHT22;38261;54.090;13.382;2022-08-19T00:15:39;21.50;99.90
52321;DHT22;38261;54.090;13.382;2022-08-19T00:17:03;21.40;99.90
52321;DHT22;38261;54.090;13.382;2022-08-19T00:18:26;21.40;99.90
52321;DHT22;38261;54.090;13.382;2022-08-19T00:19:48;21.40;99.90
52321;DHT22;38261;54.090;13.382;2022-08-19T00:21:10;21.30;99.90
52321;DHT22;38261;54.090;13.382;2022-08-19T00:22:32;21.30;99.90
52321;DHT22;38261;54.090;13.382;2022-08-19T00:23:55;21.30;99.90
52321;DHT22;38261;54.090;13.382;2022-08-19T00:25:21;21.30;99.90
52321;DHT22;38261;54.090;13.382;2022-08-19T00:26:51;21.30;99.90
52321;DHT22;38261;54.090;13.382;2022-08-19T00:28:14;21.30;99.90
52321;DHT22;38261;54.090;13.382;2022-08-19T00:29:36;21.30;99.90
52321;DHT22;38261;54.090;13.382;2022-08-19T00:30:59;21.30;99.90
52321;DHT22;38261;54.090;13.382;2022-08-19T00:32:21;21.30;99.90
52321;DHT22;38261;54.090;13.382;2022-08-19T00:33:44;21.40;99.90
52321;DHT22;38261;54.090;13.382;2022-08-19T00:35:07;21.30;99.90
52321;DHT22;38261;54.090;13.382;2022-08-19T00:36:29;21.30;99.90
52321;DHT22;38261;54.090;13.382;2022-08-19T00:37:53;21.30;99.90
52321;DHT22;38261;54.090;13.382;2022-08-19T00:39:16;21.30;99.90
52321;DHT22;38261;54.090;13.382;2022-08-19T00:40:39;21.30;99.90
52321;DHT22;38261;54.090;13.382;2022-08-19T00:42:01;21.30;99.90
52321;DHT22;38261;54.090;13.382;2022-08-19T00:43:25;21.30;99.90
52321;DHT22;38261;54.090;13.382;2022-08-19T00:44:48;21.30;99.90
52321;DHT22;38261;54.090;13.382;2022-08-19T00:46:11;21.30;99.90
52321;DHT22;38261;54.090;13.382;2022-08-19T00:47:33;21.30;99.90
52321;DHT22;38261;54.090;13.382;2022-08-19T00:48:56;21.30;99.90
52321;DHT22;38261;54.090;13.382;2022-08-19T00:50:21;21.30;99.90
52321;DHT22;38261;54.090;13.382;2022-08-19T00:51:45;21.30;99.90
52321;DHT22;38261;54.090;13.382;2022-08-19T00:53:11;21.30;99.90
52321;DHT22;38261;54.090;13.382;2022-08-19T00:54:35;21.30;99.90
52321;DHT22;38261;54.090;13.382;2022-08-19T00:55:59;21.30;99.90
52321;DHT22;38261;54.090;13.382;2022-08-19T00:57:35;21.30;99.90
52321;DHT22;38261;54.090;13.382;2022-08-19T00:58:58;21.20;99.90
52321;DHT22;38261;54.090;13.382;2022-08-19T01:00:23;21.20;99.90
52321;DHT22;38261;54.090;13.382;2022-08-19T01:01:47;21.20;99.90
52321;DHT22;38261;54.090;13.382;2022-08-19T01:03:13;21.20;99.90
52321;DHT22;38261;54.090;13.382;2022-08-19T01:04:36;21.20;99.90
52321;DHT22;38261;54.090;13.382;2022-08-19T01:05:58;21.20;99.90
52321;DHT22;38261;54.090;13.382;2022-08-19T01:07:22;21.10;99.90
52321;DHT22;38261;54.090;13.382;2022-08-19T01:08:44;21.20;99.90
52321;DHT22;38261;54.090;13.382;2022-08-19T01:10:13;21.10;99.90
52321;DHT22;38261;54.090;13.382;2022-08-19T01:11:39;21.10;99.90
52321;DHT22;38261;54.090;13.382;2022-08-19T01:13:03;21.00;99.90
52321;DHT22;38261;54.090;13.382;2022-08-19T01:14:25;21.00;99.90
52321;DHT22;38261;54.090;13.382;2022-08-19T01:15:55;20.90;99.90
52321;DHT22;38261;54.090;13.382;2022-08-19T01:17:19;20.90;99.90
52321;DHT22;38261;54.090;13.382;2022-08-19T01:18:42;20.90;99.90
52321;DHT22;38261;54.090;13.382;2022-08-19T01:20:06;20.90;99.90
52321;DHT22;38261;54.090;13.382;2022-08-19T01:22:57;20.90;99.90
52321;DHT22;38261;54.090;13.382;2022-08-19T01:24:19;20.90;99.90
52321;DHT22;38261;54.090;13.382;2022-08-19T01:25:46;20.90;99.90
52321;DHT22;38261;54.090;13.382;2022-08-19T01:27:09;20.90;99.90
52321;DHT22;38261;54.090;13.382;2022-08-19T01:28:31;20.80;99.90
52321;DHT22;38261;54.090;13.382;2022-08-19T01:30:00;20.80;99.90
52321;DHT22;38261;54.090;13.382;2022-08-19T01:31:25;20.80;99.90
52321;DHT22;38261;54.090;13.382;2022-08-19T01:32:50;20.80;99.90
52321;DHT22;38261;54.090;13.382;2022-08-19T01:34:12;20.80;99.90
52321;DHT22;38261;54.090;13.382;2022-08-19T01:35:35;20.80;99.90
52321;DHT22;38261;54.090;13.382;2022-08-19T01:36:58;20.90;99.90
52321;DHT22;38261;54.090;13.382;2022-08-19T01:38:25;20.90;99.90
52321;DHT22;38261;54.090;13.382;2022-08-19T01:39:50;20.90;99.90
52321;DHT22;38261;54.090;13.382;2022-08-19T01:41:12;20.90;99.90
52321;DHT22;38261;54.090;13.382;2022-08-19T01:42:34;20.90;99.90
52321;DHT22;38261;54.090;13.382;2022-08-19T01:43:57;20.90;99.90
52321;DHT22;38261;54.090;13.382;2022-08-19T01:45:39;20.90;99.90
52321;DHT22;38261;54.090;13.382;2022-08-19T01:47:02;20.90;99.90
52321;DHT22;38261;54.090;13.382;2022-08-19T01:48:25;20.90;99.90
52321;DHT22;38261;54.090;13.382;2022-08-19T01:49:47;20.90;99.90
52321;DHT22;38261;54.090;13.382;2022-08-19T01:51:10;20.90;99.90
52321;DHT22;38261;54.090;13.382;2022-08-19T01:52:35;20.80;99.90
52321;DHT22;38261;54.090;13.382;2022-08-19T01:53:58;20.80;99.90
52321;DHT22;38261;54.090;13.382;2022-08-19T01:55:21;20.80;99.90
52321;DHT22;38261;54.090;13.382;2022-08-19T01:56:45;20.80;99.90
52321;DHT22;38261;54.090;13.382;2022-08-19T01:58:19;20.80;99.90
52321;DHT22;38261;54.090;13.382;2022-08-19T01:59:43;20.80;99.90
52321;DHT22;38261;54.090;13.382;2022-08-19T02:01:07;20.80;99.90
52321;DHT22;38261;54.090;13.382;2022-08-19T02:02:29;20.70;99.90
52321;DHT22;38261;54.090;13.382;2022-08-19T02:03:51;20.70;99.90
52321;DHT22;38261;54.090;13.382;2022-08-19T02:05:18;20.70;99.90
52321;DHT22;38261;54.090;13.382;2022-08-19T02:06:40;20.70;99.90
52321;DHT22;38261;54.090;13.382;2022-08-19T02:08:02;20.70;99.90
52321;DHT22;38261;54.090;13.382;2022-08-19T02:09:25;20.60;99.90
52321;DHT22;38261;54.090;13.382;2022-08-19T02:10:47;20.60;99.90
52321;DHT22;38261;54.090;13.382;2022-08-19T02:12:09;20.60;99.90
52321;DHT22;38261;54.090;13.382;2022-08-19T02:13:33;20.60;99.90
52321;DHT22;38261;54.090;13.382;2022-08-19T02:14:55;20.60;99.90
52321;DHT22;38261;54.090;13.382;2022-08-19T02:16:18;20.60;99.90
52321;DHT22;38261;54.090;13.382;2022-08-19T02:17:41;20.60;99.90
52321;DHT22;38261;54.090;13.382;2022-08-19T02:19:03;20.60;99.90
52321;DHT22;38261;54.090;13.382;2022-08-19T02:20:25;20.60;99.90
52321;DHT22;38261;54.090;13.382;2022-08-19T02:21:48;20.60;99.90
52321;DHT22;38261;54.090;13.382;2022-08-19T02:23:11;20.60;99.90
52321;DHT22;38261;54.090;13.382;2022-08-19T02:24:34;20.70;99.90
52321;DHT22;38261;54.090;13.382;2022-08-19T02:25:56;20.70;99.90
52321;DHT22;38261;54.090;13.382;2022-08-19T02:27:19;20.70;99.90
52321;DHT22;38261;54.090;13.382;2022-08-19T02:28:42;20.70;99.90
52321;DHT22;38261;54.090;13.382;2022-08-19T02:30:12;20.70;99.90
52321;DHT22;38261;54.090;13.382;2022-08-19T02:31:35;20.70;99.90
52321;DHT22;38261;54.090;13.382;2022-08-19T02:32:58;20.70;99.90
52321;DHT22;38261;54.090;13.382;2022-08-19T02:34:20;20.70;99.90
52321;DHT22;38261;54.090;13.382;2022-08-19T02:35:44;20.70;99.90
52321;DHT22;38261;54.090;13.382;2022-08-19T02:37:07;20.70;99.90
52321;DHT22;38261;54.090;13.382;2022-08-19T02:38:50;20.70;99.90
52321;DHT22;38261;54.090;13.382;2022-08-19T02:40:16;20.70;99.90
52321;DHT22;38261;54.090;13.382;2022-08-19T02:41:39;20.70;99.90
52321;DHT22;38261;54.090;13.382;2022-08-19T02:43:07;20.80;99.90
52321;DHT22;38261;54.090;13.382;2022-08-19T02:44:29;20.80;99.90
52321;DHT22;38261;54.090;13.382;2022-08-19T02:45:53;20.80;99.90
52321;DHT22;38261;54.090;13.382;2022-08-19T02:47:15;20.80;99.90
52321;DHT22;38261;54.090;13.382;2022-08-19T02:48:37;20.80;99.90
52321;DHT22;38261;54.090;13.382;2022-08-19T02:50:01;20.80;99.90
52321;DHT22;38261;54.090;13.382;2022-08-19T02:51:32;20.80;99.90
52321;DHT22;38261;54.090;13.382;2022-08-19T02:52:54;20.90;99.90
52321;DHT22;38261;54.090;13.382;2022-08-19T02:54:16;20.90;99.90
52321;DHT22;38261;54.090;13.382;2022-08-19T02:55:48;20.90;99.90
52321;DHT22;38261;54.090;13.382;2022-08-19T02:57:10;20.90;99.90
52321;DHT22;38261;54.090;13.382;2022-08-19T02:58:32;20.90;99.90
52321;DHT22;38261;54.090;13.382;2022-08-19T02:59:54;20.90;99.90
52321;DHT22;38261;54.090;13.382;2022-08-19T03:01:35;20.80;99.90
52321;DHT22;38261;54.090;13.382;2022-08-19T03:02:57;20.90;99.90
52321;DHT22;38261;54.090;13.382;2022-08-19T03:04:19;20.90;99.90
52321;DHT22;38261;54.090;13.382;2022-08-19T03:05:42;20.80;99.90
52321;DHT22;38261;54.090;13.382;2022-08-19T03:07:18;20.90;99.90
52321;DHT22;38261;54.090;13.382;2022-08-19T03:08:42;20.90;99.90
52321;DHT22;38261;54.090;13.382;2022-08-19T03:10:05;20.90;99.90
52321;DHT22;38261;54.090;13.382;2022-08-19T03:11:29;20.90;99.90
52321;DHT22;38261;54.090;13.382;2022-08-19T03:12:52;20.90;99.90
52321;DHT22;38261;54.090;13.382;2022-08-19T03:14:15;20.90;99.90
52321;DHT22;38261;54.090;13.382;2022-08-19T03:15:42;20.90;99.90
52321;DHT22;38261;54.090;13.382;2022-08-19T03:17:05;20.90;99.90
52321;DHT22;38261;54.090;13.382;2022-08-19T03:18:27;20.90;99.90
52321;DHT22;38261;54.090;13.382;2022-08-19T03:19:49;20.90;99.90
52321;DHT22;38261;54.090;13.382;2022-08-19T03:21:23;20.90;99.90
52321;DHT22;38261;54.090;13.382;2022-08-19T03:22:45;20.80;99.90
52321;DHT22;38261;54.090;13.382;2022-08-19T03:24:08;20.80;99.90
52321;DHT22;38261;54.090;13.382;2022-08-19T03:25:30;20.80;99.90
52321;DHT22;38261;54.090;13.382;2022-08-19T03:26:54;20.80;99.90
52321;DHT22;38261;54.090;13.382;2022-08-19T03:28:20;20.80;99.90
52321;DHT22;38261;54.090;13.382;2022-08-19T03:29:43;20.90;99.90
52321;DHT22;38261;54.090;13.382;2022-08-19T03:31:09;20.90;99.90
52321;DHT22;38261;54.090;13.382;2022-08-19T03:32:52;20.90;99.90
52321;DHT22;38261;54.090;13.382;2022-08-19T03:34:25;20.90;99.90
52321;DHT22;38261;54.090;13.382;2022-08-19T03:36:00;21.00;99.90
52321;DHT22;38261;54.090;13.382;2022-08-19T03:37:22;21.00;99.90
52321;DHT22;38261;54.090;13.382;2022-08-19T03:38:49;21.00;99.90
52321;DHT22;38261;54.090;13.382;2022-08-19T03:40:20;21.00;99.90
52321;DHT22;38261;54.090;13.382;2022-08-19T03:41:44;21.10;99.90
52321;DHT22;38261;54.090;13.382;2022-08-19T03:43:09;21.10;99.90
52321;DHT22;38261;54.090;13.382;2022-08-19T03:44:31;21.10;99.90
52321;DHT22;38261;54.090;13.382;2022-08-19T03:46:06;21.10;99.90
52321;DHT22;38261;54.090;13.382;2022-08-19T03:47:29;21.20;99.90
52321;DHT22;38261;54.090;13.382;2022-08-19T03:48:54;21.20;99.90
52321;DHT22;38261;54.090;13.382;2022-08-19T03:50:18;21.20;99.90
52321;DHT22;38261;54.090;13.382;2022-08-19T03:51:42;21.20;99.90
52321;DHT22;38261;54.090;13.382;2022-08-19T03:53:04;21.20;99.90
52321;DHT22;38261;54.090;13.382;2022-08-19T03:54:28;21.20;99.90
52321;DHT22;38261;54.090;13.382;2022-08-19T03:55:51;21.20;99.90
52321;DHT22;38261;54.090;13.382;2022-08-19T03:57:13;21.20;99.90
52321;DHT22;38261;54.090;13.382;2022-08-19T03:58:35;21.20;99.90
52321;DHT22;38261;54.090;13.382;2022-08-19T03:59:59;21.20;99.90
52321;DHT22;38261;54.090;13.382;2022-08-19T04:01:34;21.20;99.90
52321;DHT22;38261;54.090;13.382;2022-08-19T04:02:57;21.30;99.90
52321;DHT22;38261;54.090;13.382;2022-08-19T04:04:22;21.20;99.90
52321;DHT22;38261;54.090;13.382;2022-08-19T04:05:45;21.20;99.90
52321;DHT22;38261;54.090;13.382;2022-08-19T04:07:09;21.20;99.90
52321;DHT22;38261;54.090;13.382;2022-08-19T04:08:31;21.20;99.90
52321;DHT22;38261;54.090;13.382;2022-08-19T04:09:53;21.20;99.90
52321;DHT22;38261;54.090;13.382;2022-08-19T04:11:18;21.20;99.90
52321;DHT22;38261;54.090;13.382;2022-08-19T04:13:04;21.20;99.90
52321;DHT22;38261;54.090;13.382;2022-08-19T04:14:28;21.20;99.90
52321;DHT22;38261;54.090;13.382;2022-08-19T04:15:53;21.20;99.90
52321;DHT22;38261;54.090;13.382;2022-08-19T04:17:15;21.20;99.90
52321;DHT22;38261;54.090;13.382;2022-08-19T04:18:38;21.30;99.90
52321;DHT22;38261;54.090;13.382;2022-08-19T04:20:01;21.30;99.90
52321;DHT22;38261;54.090;13.382;2022-08-19T04:21:28;21.30;99.90
52321;DHT22;38261;54.090;13.382;2022-08-19T04:22:50;21.30;99.90
52321;DHT22;38261;54.090;13.382;2022-08-19T04:24:13;21.30;99.90
52321;DHT22;38261;54.090;13.382;2022-08-19T04:25:38;21.30;99.90
52321;DHT22;38261;54.090;13.382;2022-08-19T04:27:01;21.30;99.90
52321;DHT22;38261;54.090;13.382;2022-08-19T04:28:25;21.30;99.90
52321;DHT22;38261;54.090;13.382;2022-08-19T04:29:47;21.30;99.90
52321;DHT22;38261;54.090;13.382;2022-08-19T04:31:14;21.40;99.90
52321;DHT22;38261;54.090;13.382;2022-08-19T04:32:37;21.40;99.90
52321;DHT22;38261;54.090;13.382;2022-08-19T04:34:00;21.40;99.90
52321;DHT22;38261;54.090;13.382;2022-08-19T04:35:23;21.40;99.90
52321;DHT22;38261;54.090;13.382;2022-08-19T04:36:46;21.40;99.90
52321;DHT22;38261;54.090;13.382;2022-08-19T04:38:09;21.40;99.90
52321;DHT22;38261;54.090;13.382;2022-08-19T04:39:31;21.40;99.90
52321;DHT22;38261;54.090;13.382;2022-08-19T04:41:12;21.40;99.90
52321;DHT22;38261;54.090;13.382;2022-08-19T04:42:52;21.40;99.90
52321;DHT22;38261;54.090;13.382;2022-08-19T04:44:16;21.40;99.90
52321;DHT22;38261;54.090;13.382;2022-08-19T04:45:39;21.40;99.90
52321;DHT22;38261;54.090;13.382;2022-08-19T04:47:05;21.40;99.90
52321;DHT22;38261;54.090;13.382;2022-08-19T04:48:32;21.40;99.90
52321;DHT22;38261;54.090;13.382;2022-08-19T04:49:56;21.40;99.90
52321;DHT22;38261;54.090;13.382;2022-08-19T04:51:19;21.40;99.90
52321;DHT22;38261;54.090;13.382;2022-08-19T04:52:42;21.40;99.90
52321;DHT22;38261;54.090;13.382;2022-08-19T04:54:04;21.40;99.90
52321;DHT22;38261;54.090;13.382;2022-08-19T04:55:26;21.40;99.90
52321;DHT22;38261;54.090;13.382;2022-08-19T04:56:49;21.40;99.90
52321;DHT22;38261;54.090;13.382;2022-08-19T04:58:11;21.40;99.90
52321;DHT22;38261;54.090;13.382;2022-08-19T04:59:34;21.40;99.90
52321;DHT22;38261;54.090;13.382;2022-08-19T05:00:56;21.40;99.90
52321;DHT22;38261;54.090;13.382;2022-08-19T05:02:19;21.40;99.90
52321;DHT22;38261;54.090;13.382;2022-08-19T05:03:41;21.40;99.90
52321;DHT22;38261;54.090;13.382;2022-08-19T05:05:03;21.40;99.90
52321;DHT22;38261;54.090;13.382;2022-08-19T05:06:25;21.40;99.90
52321;DHT22;38261;54.090;13.382;2022-08-19T05:07:48;21.40;99.90
52321;DHT22;38261;54.090;13.382;2022-08-19T05:09:10;21.40;99.90
52321;DHT22;38261;54.090;13.382;2022-08-19T05:10:35;21.40;99.90
52321;DHT22;38261;54.090;13.382;2022-08-19T05:11:57;21.40;99.90
52321;DHT22;38261;54.090;13.382;2022-08-19T05:13:19;21.40;99.90
52321;DHT22;38261;54.090;13.382;2022-08-19T05:14:42;21.40;99.90
52321;DHT22;38261;54.090;13.382;2022-08-19T05:16:04;21.40;99.90
52321;DHT22;38261;54.090;13.382;2022-08-19T05:17:27;21.40;99.90
52321;DHT22;38261;54.090;13.382;2022-08-19T05:18:55;21.40;99.90
52321;DHT22;38261;54.090;13.382;2022-08-19T05:20:38;21.40;99.90
52321;DHT22;38261;54.090;13.382;2022-08-19T05:22:19;21.40;99.90
52321;DHT22;38261;54.090;13.382;2022-08-19T05:23:54;21.40;99.90
52321;DHT22;38261;54.090;13.382;2022-08-19T05:25:18;21.40;99.90
52321;DHT22;38261;54.090;13.382;2022-08-19T05:26:44;21.40;99.90
52321;DHT22;38261;54.090;13.382;2022-08-19T05:28:08;21.40;99.90
52321;DHT22;38261;54.090;13.382;2022-08-19T05:29:30;21.40;99.90
52321;DHT22;38261;54.090;13.382;2022-08-19T05:30:57;21.40;99.90
52321;DHT22;38261;54.090;13.382;2022-08-19T05:32:19;21.40;99.90
52321;DHT22;38261;54.090;13.382;2022-08-19T05:33:43;21.40;99.90
52321;DHT22;38261;54.090;13.382;2022-08-19T05:35:05;21.40;99.90
52321;DHT22;38261;54.090;13.382;2022-08-19T05:36:34;21.40;99.90
52321;DHT22;38261;54.090;13.382;2022-08-19T05:37:56;21.30;99.90
52321;DHT22;38261;54.090;13.382;2022-08-19T05:39:20;21.30;99.90
52321;DHT22;38261;54.090;13.382;2022-08-19T05:40:43;21.30;99.90
52321;DHT22;38261;54.090;13.382;2022-08-19T05:42:10;21.30;99.90
52321;DHT22;38261;54.090;13.382;2022-08-19T05:43:33;21.30;99.90
52321;DHT22;38261;54.090;13.382;2022-08-19T05:44:55;21.30;99.90
52321;DHT22;38261;54.090;13.382;2022-08-19T05:46:19;21.30;99.90
52321;DHT22;38261;54.090;13.382;2022-08-19T05:47:49;21.20;99.90
52321;DHT22;38261;54.090;13.382;2022-08-19T05:49:11;21.20;99.90
52321;DHT22;38261;54.090;13.382;2022-08-19T05:50:35;21.20;99.90
52321;DHT22;38261;54.090;13.382;2022-08-19T05:51:58;21.20;99.90
52321;DHT22;38261;54.090;13.382;2022-08-19T05:53:21;21.20;99.90
52321;DHT22;38261;54.090;13.382;2022-08-19T05:54:43;21.10;99.90
52321;DHT22;38261;54.090;13.382;2022-08-19T05:56:14;21.10;99.90
52321;DHT22;38261;54.090;13.382;2022-08-19T05:57:38;21.10;99.90
52321;DHT22;38261;54.090;13.382;2022-08-19T05:59:00;21.10;99.90
52321;DHT22;38261;54.090;13.382;2022-08-19T06:00:22;21.10;99.90
52321;DHT22;38261;54.090;13.382;2022-08-19T06:01:46;21.00;99.90
52321;DHT22;38261;54.090;13.382;2022-08-19T06:03:08;21.10;99.90
52321;DHT22;38261;54.090;13.382;2022-08-19T06:04:34;21.10;99.90
52321;DHT22;38261;54.090;13.382;2022-08-19T06:05:56;21.10;99.90
52321;DHT22;38261;54.090;13.382;2022-08-19T06:07:21;21.10;99.90
52321;DHT22;38261;54.090;13.382;2022-08-19T06:08:43;21.20;99.90
52321;DHT22;38261;54.090;13.382;2022-08-19T06:10:12;21.20;99.90
52321;DHT22;38261;54.090;13.382;2022-08-19T06:11:43;21.20;99.90
52321;DHT22;38261;54.090;13.382;2022-08-19T06:13:06;21.20;99.90
52321;DHT22;38261;54.090;13.382;2022-08-19T06:14:33;21.20;99.90
52321;DHT22;38261;54.090;13.382;2022-08-19T06:16:01;21.20;99.90
52321;DHT22;38261;54.090;13.382;2022-08-19T06:17:23;21.10;99.90
52321;DHT22;38261;54.090;13.382;2022-08-19T06:18:56;21.10;99.90
52321;DHT22;38261;54.090;13.382;2022-08-19T06:20:19;21.10;99.90
52321;DHT22;38261;54.090;13.382;2022-08-19T06:22:02;21.20;99.90
52321;DHT22;38261;54.090;13.382;2022-08-19T06:23:25;21.20;99.90
52321;DHT22;38261;54.090;13.382;2022-08-19T06:24:47;21.20;99.90
52321;DHT22;38261;54.090;13.382;2022-08-19T06:26:12;21.20;99.90
52321;DHT22;38261;54.090;13.382;2022-08-19T06:27:35;21.20;99.90
52321;DHT22;38261;54.090;13.382;2022-08-19T06:29:00;21.20;99.90
52321;DHT22;38261;54.090;13.382;2022-08-19T06:30:22;21.30;99.90
52321;DHT22;38261;54.090;13.382;2022-08-19T06:31:48;21.30;99.90
52321;DHT22;38261;54.090;13.382;2022-08-19T06:33:14;21.30;99.90
52321;DHT22;38261;54.090;13.382;2022-08-19T06:34:36;21.30;99.90
52321;DHT22;38261;54.090;13.382;2022-08-19T06:35:58;21.30;99.90
52321;DHT22;38261;54.090;13.382;2022-08-19T06:37:20;21.30;99.90
52321;DHT22;38261;54.090;13.382;2022-08-19T06:38:43;21.30;99.90
52321;DHT22;38261;54.090;13.382;2022-08-19T06:40:07;21.30;99.90
52321;DHT22;38261;54.090;13.382;2022-08-19T06:41:31;21.30;99.90
52321;DHT22;38261;54.090;13.382;2022-08-19T06:43:00;21.30;99.90
52321;DHT22;38261;54.090;13.382;2022-08-19T06:44:31;21.40;99.90
52321;DHT22;38261;54.090;13.382;2022-08-19T06:46:03;21.40;99.90
52321;DHT22;38261;54.090;13.382;2022-08-19T06:47:35;21.50;99.90
52321;DHT22;38261;54.090;13.382;2022-08-19T06:48:58;21.50;99.90
52321;DHT22;38261;54.090;13.382;2022-08-19T06:50:20;21.50;99.90
52321;DHT22;38261;54.090;13.382;2022-08-19T06:51:47;21.60;99.90
52321;DHT22;38261;54.090;13.382;2022-08-19T06:53:12;21.60;99.90
52321;DHT22;38261;54.090;13.382;2022-08-19T06:54:35;21.50;99.90
52321;DHT22;38261;54.090;13.382;2022-08-19T06:56:19;21.50;99.90
52321;DHT22;38261;54.090;13.382;2022-08-19T06:57:43;21.40;99.90
52321;DHT22;38261;54.090;13.382;2022-08-19T06:59:10;21.40;99.90
52321;DHT22;38261;54.090;13.382;2022-08-19T07:00:33;21.30;99.90
52321;DHT22;38261;54.090;13.382;2022-08-19T07:01:56;21.30;99.90
52321;DHT22;38261;54.090;13.382;2022-08-19T07:03:19;21.30;99.90
52321;DHT22;38261;54.090;13.382;2022-08-19T07:04:41;21.30;99.90
52321;DHT22;38261;54.090;13.382;2022-08-19T07:06:09;21.30;99.90
52321;DHT22;38261;54.090;13.382;2022-08-19T07:07:52;21.30;99.90
52321;DHT22;38261;54.090;13.382;2022-08-19T07:09:18;21.40;99.90
52321;DHT22;38261;54.090;13.382;2022-08-19T07:10:46;21.40;99.90
52321;DHT22;38261;54.090;13.382;2022-08-19T07:12:10;21.50;99.90
52321;DHT22;38261;54.090;13.382;2022-08-19T07:13:34;21.50;99.90
52321;DHT22;38261;54.090;13.382;2022-08-19T07:15:00;21.50;99.90
52321;DHT22;38261;54.090;13.382;2022-08-19T07:16:22;21.50;99.90
52321;DHT22;38261;54.090;13.382;2022-08-19T07:17:50;21.50;99.90
52321;DHT22;38261;54.090;13.382;2022-08-19T07:19:14;21.60;99.90
52321;DHT22;38261;54.090;13.382;2022-08-19T07:20:40;21.60;99.90
52321;DHT22;38261;54.090;13.382;2022-08-19T07:22:05;21.60;99.90
52321;DHT22;38261;54.090;13.382;2022-08-19T07:23:27;21.60;99.90
52321;DHT22;38261;54.090;13.382;2022-08-19T07:24:50;21.60;99.90
52321;DHT22;38261;54.090;13.382;2022-08-19T07:26:18;21.60;99.90
52321;DHT22;38261;54.090;13.382;2022-08-19T07:27:49;21.60;99.90
52321;DHT22;38261;54.090;13.382;2022-08-19T07:29:15;21.60;99.90
52321;DHT22;38261;54.090;13.382;2022-08-19T07:30:39;21.60;99.90
52321;DHT22;38261;54.090;13.382;2022-08-19T07:32:05;21.60;99.90
52321;DHT22;38261;54.090;13.382;2022-08-19T07:33:33;21.60;99.90
52321;DHT22;38261;54.090;13.382;2022-08-19T07:34:57;21.60;99.90
52321;DHT22;38261;54.090;13.382;2022-08-19T07:36:25;21.60;99.90
52321;DHT22;38261;54.090;13.382;2022-08-19T07:37:52;21.60;99.90
52321;DHT22;38261;54.090;13.382;2022-08-19T07:39:22;21.70;99.90
52321;DHT22;38261;54.090;13.382;2022-08-19T07:40:45;21.70;99.90
52321;DHT22;38261;54.090;13.382;2022-08-19T07:42:09;21.70;99.90
52321;DHT22;38261;54.090;13.382;2022-08-19T07:43:34;21.70;99.90
52321;DHT22;38261;54.090;13.382;2022-08-19T07:44:57;21.70;99.90
52321;DHT22;38261;54.090;13.382;2022-08-19T07:46:20;21.60;99.90
52321;DHT22;38261;54.090;13.382;2022-08-19T07:47:42;21.70;99.90
52321;DHT22;38261;54.090;13.382;2022-08-19T07:49:12;21.60;99.90
52321;DHT22;38261;54.090;13.382;2022-08-19T07:50:39;21.60;99.90
52321;DHT22;38261;54.090;13.382;2022-08-19T07:52:06;21.60;99.90
52321;DHT22;38261;54.090;13.382;2022-08-19T07:53:29;21.50;99.90
52321;DHT22;38261;54.090;13.382;2022-08-19T07:54:52;21.50;99.90
52321;DHT22;38261;54.090;13.382;2022-08-19T07:56:14;21.50;99.90
52321;DHT22;38261;54.090;13.382;2022-08-19T07:57:36;21.40;99.90
52321;DHT22;38261;54.090;13.382;2022-08-19T07:59:00;21.30;99.90
52321;DHT22;38261;54.090;13.382;2022-08-19T08:00:22;21.30;99.90
52321;DHT22;38261;54.090;13.382;2022-08-19T08:01:45;21.30;99.90
52321;DHT22;38261;54.090;13.382;2022-08-19T08:03:08;21.20;99.90
52321;DHT22;38261;54.090;13.382;2022-08-19T08:04:31;21.20;99.90
52321;DHT22;38261;54.090;13.382;2022-08-19T08:06:14;21.20;99.90
52321;DHT22;38261;54.090;13.382;2022-08-19T08:07:55;21.10;99.90
52321;DHT22;38261;54.090;13.382;2022-08-19T08:09:39;21.10;99.90
52321;DHT22;38261;54.090;13.382;2022-08-19T08:11:04;21.10;99.90
52321;DHT22;38261;54.090;13.382;2022-08-19T08:12:40;21.10;99.90
52321;DHT22;38261;54.090;13.382;2022-08-19T08:14:03;21.10;99.90
52321;DHT22;38261;54.090;13.382;2022-08-19T08:15:26;21.10;99.90
52321;DHT22;38261;54.090;13.382;2022-08-19T08:16:50;21.10;99.90
52321;DHT22;38261;54.090;13.382;2022-08-19T08:18:13;21.10;99.90
52321;DHT22;38261;54.090;13.382;2022-08-19T08:19:36;21.10;99.90
52321;DHT22;38261;54.090;13.382;2022-08-19T08:20:59;21.20;99.90
52321;DHT22;38261;54.090;13.382;2022-08-19T08:22:22;21.20;99.90
52321;DHT22;38261;54.090;13.382;2022-08-19T08:24:03;21.20;99.90
52321;DHT22;38261;54.090;13.382;2022-08-19T08:25:25;21.10;99.90
52321;DHT22;38261;54.090;13.382;2022-08-19T08:26:53;21.10;99.90
52321;DHT22;38261;54.090;13.382;2022-08-19T08:28:19;21.10;99.90
52321;DHT22;38261;54.090;13.382;2022-08-19T08:29:41;21.10;99.90
52321;DHT22;38261;54.090;13.382;2022-08-19T08:31:03;21.10;99.90
52321;DHT22;38261;54.090;13.382;2022-08-19T08:32:30;21.10;99.90
52321;DHT22;38261;54.090;13.382;2022-08-19T08:33:52;21.10;99.90
52321;DHT22;38261;54.090;13.382;2022-08-19T08:35:21;21.10;99.90
52321;DHT22;38261;54.090;13.382;2022-08-19T08:36:45;21.20;99.90
52321;DHT22;38261;54.090;13.382;2022-08-19T08:38:07;21.20;99.90
52321;DHT22;38261;54.090;13.382;2022-08-19T08:39:29;21.30;99.90
52321;DHT22;38261;54.090;13.382;2022-08-19T08:41:01;21.30;99.90
52321;DHT22;38261;54.090;13.382;2022-08-19T08:42:34;21.30;99.90
52321;DHT22;38261;54.090;13.382;2022-08-19T08:43:58;21.40;99.90
52321;DHT22;38261;54.090;13.382;2022-08-19T08:45:20;21.50;99.90
52321;DHT22;38261;54.090;13.382;2022-08-19T08:46:50;21.50;99.90
52321;DHT22;38261;54.090;13.382;2022-08-19T08:48:24;21.60;99.90
52321;DHT22;38261;54.090;13.382;2022-08-19T08:49:59;21.70;99.90